Time;durP1;ratioP1;P1;durP2;ratioP2;P2;SDS_P1;SDS_P2;PMS_P1;PMS_P2;Temp;Humidity;BMP_temperature;BMP_pressure;BME280_temperature;BME280_humidity;BME280_pressure;Samples;Min_cycle;Max_cycle;Signal;HPM_P1;HPM_P2
2023/03/15 00:02:21;;;;;;;10.57;3.20;;;4.60;99.90;;;;;;5093079;28;20199;-51
2023/03/15 00:04:47;;;;;;;9.88;2.22;;;4.40;99.90;;;;;;5093164;28;20437;-50
2023/03/15 00:07:15;;;;;;;10.65;2.40;;;4.60;99.90;;;;;;5092937;28;20201;-50
2023/03/15 00:09:42;;;;;;;8.63;2.50;;;3.90;99.90;;;;;;5092672;28;20221;-50
2023/03/15 00:12:08;;;;;;;4.10;1.90;;;4.60;99.90;;;;;;5092761;28;20205;-49
2023/03/15 00:14:36;;;;;;;7.87;2.57;;;4.30;99.90;;;;;;5092708;28;20214;-50
2023/03/15 00:17:03;;;;;;;10.55;2.45;;;4.30;99.90;;;;;;5092696;28;20443;-50
2023/03/15 00:19:29;;;;;;;11.10;2.60;;;4.50;99.90;;;;;;5092037;28;20209;-49
2023/03/15 00:21:56;;;;;;;8.27;1.90;;;4.30;99.90;;;;;;5092535;28;20199;-49
2023/03/15 00:24:24;;;;;;;3.15;1.50;;;3.90;99.90;;;;;;5092545;28;20196;-50
2023/03/15 00:26:50;;;;;;;8.48;2.70;;;4.40;99.90;;;;;;5092260;28;20195;-50
2023/03/15 00:29:17;;;;;;;13.32;2.72;;;4.40;99.90;;;;;;5091875;28;20250;-51
2023/03/15 00:31:44;;;;;;;16.13;2.85;;;4.50;99.90;;;;;;5090983;28;20202;-51
2023/03/15 00:34:12;;;;;;;7.60;2.15;;;4.50;99.90;;;;;;5092064;28;20194;-51
2023/03/15 00:36:42;;;;;;;5.78;2.47;;;4.50;99.90;;;;;;5090944;28;20266;-51
2023/03/15 00:39:09;;;;;;;10.18;2.97;;;4.20;99.90;;;;;;5090566;28;20222;-51
2023/03/15 00:41:37;;;;;;;11.82;3.00;;;4.20;99.90;;;;;;5092286;28;20203;-51
2023/03/15 00:44:04;;;;;;;14.00;3.20;;;4.40;99.90;;;;;;5092382;28;20197;-51
2023/03/15 00:46:31;;;;;;;8.77;2.30;;;4.30;99.90;;;;;;5090745;28;20555;-50
2023/03/15 00:48:57;;;;;;;14.68;2.90;;;4.50;99.90;;;;;;5091581;28;20229;-51
2023/03/15 00:51:24;;;;;;;6.95;2.50;;;4.40;99.90;;;;;;5090765;28;20306;-51
2023/03/15 00:53:53;;;;;;;13.38;2.65;;;4.40;99.90;;;;;;5090828;28;20199;-51
2023/03/15 00:56:22;;;;;;;10.90;2.93;;;4.10;99.90;;;;;;5092050;28;20222;-49
2023/03/15 00:58:51;;;;;;;9.23;2.05;;;4.10;99.90;;;;;;5089801;28;20459;-49
2023/03/15 01:01:20;;;;;;;13.18;2.63;;;4.40;99.90;;;;;;5091829;28;20191;-50
2023/03/15 01:03:48;;;;;;;8.48;2.25;;;4.30;99.90;;;;;;5090606;28;20206;-50
2023/03/15 01:06:17;;;;;;;7.78;2.13;;;4.30;99.90;;;;;;5091886;28;20190;-50
2023/03/15 01:08:44;;;;;;;10.52;2.45;;;4.10;99.90;;;;;;5090113;28;20682;-50
2023/03/15 01:11:13;;;;;;;6.00;2.30;;;4.40;99.90;;;;;;5090603;28;20210;-51
2023/03/15 01:13:39;;;;;;;8.10;2.88;;;4.40;99.90;;;;;;5091825;28;20195;-49
2023/03/15 01:16:11;;;;;;;10.00;2.20;;;4.30;99.90;;;;;;5090428;28;20242;-49
2023/03/15 01:18:38;;;;;;;8.82;2.00;;;4.20;99.90;;;;;;5090070;28;20453;-50
2023/03/15 01:21:06;;;;;;;11.48;2.70;;;4.00;99.90;;;;;;5090490;28;20199;-49
2023/03/15 01:23:33;;;;;;;13.38;2.60;;;4.30;99.90;;;;;;5091937;28;20203;-49
2023/03/15 01:26:00;;;;;;;8.73;2.50;;;4.30;99.90;;;;;;5090456;28;20595;-50
2023/03/15 01:28:27;;;;;;;5.57;1.90;;;3.70;99.90;;;;;;5090083;28;20567;-50
2023/03/15 01:30:54;;;;;;;7.00;2.60;;;4.30;99.90;;;;;;5091628;28;20217;-50
2023/03/15 01:33:23;;;;;;;11.45;2.28;;;4.20;99.90;;;;;;5090435;28;20205;-49
2023/03/15 01:35:58;;;;;;;10.25;2.80;;;4.20;99.90;;;;;;5090398;28;20218;-49
2023/03/15 01:38:25;;;;;;;6.15;1.60;;;4.20;99.90;;;;;;5090150;28;20198;-49
2023/03/15 01:40:52;;;;;;;13.15;2.80;;;4.00;99.90;;;;;;5092268;28;20709;-50
2023/03/15 01:43:20;;;;;;;8.20;2.17;;;3.90;99.90;;;;;;5090514;28;20209;-49
2023/03/15 01:46:17;;;;;;;7.47;1.90;;;4.20;99.90;;;;;;5090727;28;20195;-50
2023/03/15 01:48:49;;;;;;;8.02;1.80;;;4.00;99.90;;;;;;5090089;28;20232;-49
2023/03/15 01:51:27;;;;;;;8.73;1.98;;;3.80;99.90;;;;;;5090437;28;20771;-51
2023/03/15 01:53:57;;;;;;;7.50;2.10;;;4.00;99.90;;;;;;5091599;28;20197;-51
2023/03/15 01:56:25;;;;;;;5.78;2.30;;;4.00;99.90;;;;;;5090441;28;20309;-50
2023/03/15 01:58:53;;;;;;;11.52;1.90;;;3.50;99.90;;;;;;5089647;28;20293;-50
2023/03/15 02:01:21;;;;;;;8.07;2.00;;;4.30;99.90;;;;;;5090118;28;20293;-49
2023/03/15 02:03:54;;;;;;;8.55;2.08;;;3.90;99.90;;;;;;5090109;28;20194;-50
2023/03/15 02:06:25;;;;;;;10.63;2.55;;;3.90;99.90;;;;;;5090222;28;20190;-50
2023/03/15 02:08:59;;;;;;;11.85;2.70;;;3.90;99.90;;;;;;5090055;28;20222;-50
2023/03/15 02:11:30;;;;;;;11.43;3.17;;;3.70;99.90;;;;;;5093850;28;20190;-50
2023/03/15 02:13:58;;;;;;;8.45;2.03;;;4.00;99.90;;;;;;5093630;28;20233;-50
2023/03/15 02:16:25;;;;;;;7.90;2.25;;;3.80;99.90;;;;;;5093598;28;20264;-51
2023/03/15 02:18:59;;;;;;;9.50;2.67;;;3.90;99.90;;;;;;5093262;28;20218;-51
2023/03/15 02:21:39;;;;;;;8.45;2.20;;;3.30;99.90;;;;;;5093515;28;20209;-50
2023/03/15 02:24:16;;;;;;;10.23;2.58;;;3.90;99.90;;;;;;5093395;28;20199;-49
2023/03/15 02:26:48;;;;;;;9.02;2.45;;;3.70;99.90;;;;;;5093319;28;20187;-49
2023/03/15 02:29:16;;;;;;;9.82;2.22;;;3.80;99.90;;;;;;5092939;28;20268;-50
2023/03/15 02:31:43;;;;;;;4.80;2.30;;;4.00;99.90;;;;;;5093284;28;20199;-50
2023/03/15 02:34:10;;;;;;;5.47;2.13;;;3.60;99.90;;;;;;5094478;28;20206;-49
2023/03/15 02:36:36;;;;;;;10.55;1.85;;;4.00;99.90;;;;;;5093198;28;20218;-50
2023/03/15 02:39:14;;;;;;;8.25;2.30;;;3.50;99.90;;;;;;5092816;28;20225;-50
2023/03/15 02:41:43;;;;;;;10.43;2.58;;;3.50;99.90;;;;;;5094402;28;20198;-49
2023/03/15 02:44:14;;;;;;;11.30;2.92;;;3.60;99.90;;;;;;5093002;28;20678;-50
2023/03/15 02:46:43;;;;;;;8.30;2.20;;;3.80;99.90;;;;;;5094559;28;20194;-49
2023/03/15 02:49:11;;;;;;;11.38;2.97;;;3.60;99.90;;;;;;5093996;28;20733;-50
2023/03/15 02:51:38;;;;;;;8.10;2.05;;;3.50;99.90;;;;;;5094162;28;20202;-49
2023/03/15 02:54:05;;;;;;;12.90;2.95;;;3.50;99.90;;;;;;5092886;28;20199;-50
2023/03/15 02:56:32;;;;;;;4.05;2.08;;;3.60;99.90;;;;;;5092800;28;20231;-50
2023/03/15 02:59:00;;;;;;;12.98;2.50;;;3.80;99.90;;;;;;5092309;28;20254;-49
2023/03/15 03:01:27;;;;;;;13.77;2.72;;;3.70;99.90;;;;;;5092860;28;20210;-50
2023/03/15 03:03:55;;;;;;;11.35;2.13;;;3.70;99.90;;;;;;5092994;28;20681;-49
2023/03/15 03:06:22;;;;;;;11.77;2.38;;;3.50;99.90;;;;;;5094709;28;20213;-48
2023/03/15 03:08:48;;;;;;;6.75;2.20;;;4.20;99.90;;;;;;5092248;28;20244;-51
2023/03/15 03:11:18;;;;;;;8.57;1.90;;;3.40;99.90;;;;;;5092825;28;20211;-49
2023/03/15 03:13:45;;;;;;;11.15;2.65;;;3.50;99.90;;;;;;5093770;28;20682;-49
2023/03/15 03:16:12;;;;;;;5.80;2.40;;;3.30;99.90;;;;;;5092404;28;20218;-50
2023/03/15 03:18:41;;;;;;;7.18;1.95;;;3.10;99.90;;;;;;5091976;28;20211;-50
2023/03/15 03:21:09;;;;;;;9.02;1.55;;;3.10;99.90;;;;;;5092052;28;20199;-50
2023/03/15 03:23:36;;;;;;;6.30;2.35;;;3.40;99.90;;;;;;5093595;28;20206;-49
2023/03/15 03:26:10;;;;;;;9.05;2.60;;;2.90;99.90;;;;;;5092225;28;20198;-50
2023/03/15 03:28:37;;;;;;;7.03;2.90;;;3.70;99.90;;;;;;5091841;28;20225;-50
2023/03/15 03:31:05;;;;;;;9.18;2.55;;;2.90;99.90;;;;;;5092363;28;20562;-50
2023/03/15 03:33:32;;;;;;;11.88;2.00;;;3.60;99.90;;;;;;5092083;28;20202;-50
2023/03/15 03:36:02;;;;;;;7.78;2.63;;;3.90;99.90;;;;;;5092027;28;20236;-49
2023/03/15 03:38:31;;;;;;;11.88;2.65;;;3.50;99.90;;;;;;5093007;28;20208;-50
2023/03/15 03:41:00;;;;;;;9.52;2.20;;;3.70;99.90;;;;;;5092079;28;20774;-50
2023/03/15 03:43:30;;;;;;;12.55;3.58;;;3.70;99.90;;;;;;5093134;28;20195;-50
2023/03/15 03:45:56;;;;;;;10.60;2.53;;;3.80;99.90;;;;;;5091834;28;20202;-51
2023/03/15 03:48:23;;;;;;;11.40;2.20;;;3.50;99.90;;;;;;5091808;28;20715;-50
2023/03/15 03:50:50;;;;;;;12.95;2.50;;;3.80;99.90;;;;;;5091656;28;20313;-50
2023/03/15 03:53:17;;;;;;;12.65;2.15;;;4.10;99.90;;;;;;5091708;28;20199;-50
2023/03/15 03:55:46;;;;;;;8.30;2.17;;;4.00;99.90;;;;;;5092996;28;20212;-50
2023/03/15 03:58:17;;;;;;;7.38;1.83;;;4.00;99.90;;;;;;5091427;28;20208;-50
2023/03/15 04:00:53;;;;;;;8.48;2.15;;;3.80;99.90;;;;;;5091475;28;20222;-50
2023/03/15 04:03:19;;;;;;;9.95;2.65;;;3.90;99.90;;;;;;5091572;28;20612;-50
2023/03/15 04:05:51;;;;;;;6.50;2.50;;;4.00;99.90;;;;;;5091351;28;20659;-50
2023/03/15 04:08:21;;;;;;;8.95;2.65;;;3.80;99.90;;;;;;5091149;28;20315;-50
2023/03/15 04:10:52;;;;;;;5.90;2.03;;;3.90;99.90;;;;;;5091207;28;20263;-50
2023/03/15 04:13:19;;;;;;;8.45;2.67;;;3.70;99.90;;;;;;5091300;28;20221;-50
2023/03/15 04:15:46;;;;;;;9.50;2.58;;;3.80;99.90;;;;;;5091239;28;20222;-50
2023/03/15 04:18:13;;;;;;;11.20;3.20;;;3.90;99.90;;;;;;5090874;28;20285;-50
2023/03/15 04:20:45;;;;;;;9.32;2.60;;;3.70;99.90;;;;;;5091132;28;20221;-50
2023/03/15 04:23:12;;;;;;;8.80;3.00;;;3.50;99.90;;;;;;5092521;28;20199;-50
2023/03/15 04:25:56;;;;;;;7.55;2.50;;;3.50;99.90;;;;;;5092313;28;20191;-50
2023/03/15 04:28:37;;;;;;;11.05;2.88;;;3.30;99.90;;;;;;5090517;28;20225;-50
2023/03/15 04:31:15;;;;;;;20.58;5.00;;;3.40;99.90;;;;;;5092287;28;20194;-49
2023/03/15 04:33:59;;;;;;;15.18;3.00;;;3.40;99.90;;;;;;5092259;28;20710;-49
2023/03/15 04:36:35;;;;;;;10.60;2.85;;;3.30;99.90;;;;;;5090997;28;20222;-50
2023/03/15 04:39:20;;;;;;;15.88;2.90;;;3.40;99.90;;;;;;5091843;28;20225;-50
2023/03/15 04:42:10;;;;;;;7.18;2.50;;;2.90;99.90;;;;;;5092085;28;20537;-50
2023/03/15 04:45:07;;;;;;;13.25;2.88;;;3.40;99.90;;;;;;5090954;28;20206;-51
2023/03/15 04:47:48;;;;;;;22.58;6.88;;;3.40;99.90;;;;;;5090797;28;20715;-50
2023/03/15 04:50:30;;;;;;;9.40;3.00;;;3.50;99.90;;;;;;5091857;28;20213;-49
2023/03/15 04:53:10;;;;;;;10.45;3.10;;;3.40;99.90;;;;;;5090874;28;20270;-49
2023/03/15 04:56:03;;;;;;;18.25;3.40;;;3.40;99.90;;;;;;5089783;28;20218;-52
2023/03/15 04:58:42;;;;;;;9.73;3.13;;;3.20;99.90;;;;;;5090314;28;20210;-49
2023/03/15 05:01:40;;;;;;;15.38;2.92;;;2.90;99.90;;;;;;5057773;28;20234;-50
2023/03/15 05:04:29;;;;;;;11.80;2.92;;;3.40;99.90;;;;;;5090924;28;20202;-50
2023/03/15 05:07:28;;;;;;;13.02;2.65;;;3.30;99.90;;;;;;5079966;28;20301;-50
2023/03/15 05:10:11;;;;;;;11.98;2.83;;;3.20;99.90;;;;;;5090702;28;20223;-50
2023/03/15 05:12:52;;;;;;;7.18;2.45;;;3.20;99.90;;;;;;5095219;28;20191;-49
2023/03/15 05:15:39;;;;;;;14.60;3.13;;;3.30;99.90;;;;;;5094184;28;20205;-50
2023/03/15 05:18:36;;;;;;;14.27;3.40;;;3.30;99.90;;;;;;5091852;28;20583;-49
2023/03/15 05:21:23;;;;;;;10.57;2.80;;;3.10;99.90;;;;;;5094704;28;20198;-49
2023/03/15 05:24:08;;;;;;;13.35;2.70;;;3.30;99.90;;;;;;5092545;28;20677;-49
2023/03/15 05:26:53;;;;;;;21.02;4.28;;;3.20;99.90;;;;;;5090454;28;20290;-50
2023/03/15 05:29:32;;;;;;;12.88;3.42;;;3.30;99.90;;;;;;5090142;28;20226;-50
2023/03/15 05:32:28;;;;;;;16.83;3.47;;;3.30;99.90;;;;;;5090408;28;20203;-50
2023/03/15 05:35:14;;;;;;;7.68;3.25;;;3.10;99.90;;;;;;5090579;28;20205;-50
2023/03/15 05:38:00;;;;;;;7.85;3.60;;;3.40;99.90;;;;;;5091681;28;20248;-50
2023/03/15 05:40:56;;;;;;;11.20;3.30;;;2.70;99.90;;;;;;5053807;28;20662;-50
2023/03/15 05:43:44;;;;;;;8.05;2.92;;;3.30;99.90;;;;;;5090510;28;20202;-51
2023/03/15 05:46:31;;;;;;;10.63;3.50;;;3.20;99.90;;;;;;5095070;28;20216;-50
2023/03/15 05:48:59;;;;;;;8.40;2.90;;;3.30;99.90;;;;;;5095206;28;20214;-51
2023/03/15 05:51:31;;;;;;;7.70;2.95;;;3.60;99.90;;;;;;5094268;28;20209;-50
2023/03/15 05:54:20;;;;;;;13.18;3.70;;;3.70;99.90;;;;;;5094323;28;20204;-50
2023/03/15 05:56:59;;;;;;;16.83;3.78;;;4.40;99.90;;;;;;5094112;28;20221;-52
2023/03/15 05:59:34;;;;;;;11.35;2.80;;;3.60;99.90;;;;;;5093378;28;20234;-51
2023/03/15 06:02:20;;;;;;;10.18;3.03;;;3.80;99.90;;;;;;5095429;28;20251;-49
2023/03/15 06:05:03;;;;;;;15.20;3.70;;;3.90;99.90;;;;;;5093602;28;20583;-50
2023/03/15 06:07:30;;;;;;;13.07;4.93;;;3.90;99.90;;;;;;5093748;28;20275;-50
2023/03/15 06:09:57;;;;;;;16.20;3.67;;;4.20;99.90;;;;;;5093079;28;20317;-49
2023/03/15 06:12:25;;;;;;;10.95;3.42;;;3.50;99.90;;;;;;5093603;28;20536;-50
2023/03/15 06:14:52;;;;;;;10.98;3.90;;;3.90;99.90;;;;;;5093641;28;20205;-51
2023/03/15 06:17:19;;;;;;;12.30;4.65;;;4.00;99.90;;;;;;5093045;28;20254;-50
2023/03/15 06:19:46;;;;;;;9.18;3.60;;;4.30;99.90;;;;;;5093090;28;20617;-51
2023/03/15 06:22:14;;;;;;;27.13;4.72;;;4.10;99.90;;;;;;5094292;28;20195;-51
2023/03/15 06:24:48;;;;;;;10.50;3.22;;;4.40;99.90;;;;;;5093105;28;20198;-52
2023/03/15 06:27:14;;;;;;;14.05;4.20;;;4.40;99.90;;;;;;5094294;28;20225;-51
2023/03/15 06:29:41;;;;;;;12.82;3.90;;;4.40;99.90;;;;;;5092374;28;20221;-51
2023/03/15 06:32:09;;;;;;;10.90;3.40;;;4.50;99.90;;;;;;5093060;28;20202;-50
2023/03/15 06:34:38;;;;;;;15.68;3.60;;;4.60;99.90;;;;;;5093554;28;20199;-51
2023/03/15 06:37:04;;;;;;;18.67;3.45;;;4.70;99.90;;;;;;5092792;28;20254;-51
2023/03/15 06:39:33;;;;;;;9.80;3.40;;;4.80;99.90;;;;;;5092453;28;20215;-51
2023/03/15 06:42:02;;;;;;;12.07;3.50;;;5.00;99.90;;;;;;5092720;28;20286;-51
2023/03/15 06:44:30;;;;;;;13.18;3.15;;;5.40;99.90;;;;;;5092805;28;20201;-51
2023/03/15 06:47:01;;;;;;;16.67;4.63;;;5.00;99.90;;;;;;5092621;28;20214;-50
2023/03/15 06:49:28;;;;;;;16.67;4.00;;;4.20;99.90;;;;;;5093174;28;20218;-51
2023/03/15 06:51:55;;;;;;;8.25;3.42;;;5.00;99.90;;;;;;5091795;28;20929;-51
2023/03/15 06:54:22;;;;;;;9.75;3.00;;;4.90;99.90;;;;;;5092043;28;20302;-51
2023/03/15 06:56:50;;;;;;;10.57;5.88;;;4.80;99.90;;;;;;5091856;28;20272;-50
2023/03/15 06:59:17;;;;;;;16.80;4.72;;;5.10;99.90;;;;;;5092907;28;20740;-50
2023/03/15 07:01:43;;;;;;;15.20;5.07;;;4.50;99.90;;;;;;5093843;28;20686;-51
2023/03/15 07:04:10;;;;;;;9.80;3.30;;;4.90;99.90;;;;;;5093949;28;20241;-51
2023/03/15 07:06:37;;;;;;;14.65;3.50;;;5.00;99.90;;;;;;5093642;28;20183;-50
2023/03/15 07:09:05;;;;;;;11.18;5.13;;;4.80;99.90;;;;;;5093337;28;20229;-50
2023/03/15 07:11:32;;;;;;;10.38;4.30;;;4.90;99.90;;;;;;5093420;28;20201;-50
2023/03/15 07:14:00;;;;;;;9.35;3.58;;;5.10;99.90;;;;;;5093514;28;20187;-51
2023/03/15 07:16:27;;;;;;;8.85;3.72;;;4.50;99.90;;;;;;5092942;28;20616;-51
2023/03/15 07:18:55;;;;;;;13.60;3.60;;;5.10;99.90;;;;;;5093192;28;20201;-51
2023/03/15 07:21:21;;;;;;;17.07;3.93;;;5.10;99.90;;;;;;5093614;28;20659;-51
2023/03/15 07:23:48;;;;;;;7.00;3.20;;;5.20;99.90;;;;;;5093106;28;20433;-50
2023/03/15 07:26:15;;;;;;;8.27;3.50;;;5.30;99.90;;;;;;5092927;28;20432;-51
2023/03/15 07:28:43;;;;;;;8.90;3.20;;;5.60;99.90;;;;;;5092418;28;20435;-53
2023/03/15 07:31:11;;;;;;;8.57;3.30;;;5.70;99.90;;;;;;5092540;28;20526;-51
2023/03/15 07:33:38;;;;;;;8.53;3.60;;;5.60;99.90;;;;;;5092571;28;20901;-51
2023/03/15 07:36:06;;;;;;;13.63;4.32;;;5.60;99.90;;;;;;5092883;28;20443;-51
2023/03/15 07:38:34;;;;;;;12.63;3.60;;;5.50;99.90;;;;;;5092250;28;20245;-52
2023/03/15 07:41:02;;;;;;;10.82;3.10;;;6.20;99.90;;;;;;5092898;28;20525;-51
2023/03/15 07:43:29;;;;;;;16.40;4.27;;;5.80;99.90;;;;;;5091090;28;20210;-51
2023/03/15 07:46:07;;;;;;;8.80;3.63;;;5.90;99.90;;;;;;5092158;28;20424;-50
2023/03/15 07:48:35;;;;;;;9.07;2.83;;;5.80;99.90;;;;;;5092881;28;20479;-51
2023/03/15 07:51:01;;;;;;;9.47;3.50;;;5.60;99.90;;;;;;5093604;28;20440;-51
2023/03/15 07:53:28;;;;;;;6.23;3.10;;;5.50;99.90;;;;;;5094089;28;20425;-51
2023/03/15 07:55:55;;;;;;;17.60;4.03;;;5.70;99.90;;;;;;5092884;28;20533;-51
2023/03/15 07:58:21;;;;;;;9.47;3.63;;;5.60;99.90;;;;;;5092766;28;20470;-52
2023/03/15 08:00:48;;;;;;;15.03;3.07;;;5.60;99.90;;;;;;5092548;28;21027;-50
2023/03/15 08:03:15;;;;;;;16.60;4.80;;;5.50;99.90;;;;;;5092849;28;20434;-51
2023/03/15 08:05:42;;;;;;;12.40;3.83;;;5.60;99.90;;;;;;5092734;28;20411;-50
2023/03/15 08:08:09;;;;;;;23.83;4.07;;;5.60;99.90;;;;;;5091275;28;20434;-52
2023/03/15 08:10:36;;;;;;;12.50;3.65;;;5.60;99.90;;;;;;5092564;28;20452;-51
2023/03/15 08:13:02;;;;;;;17.60;4.47;;;5.80;99.90;;;;;;5092462;28;20196;-51
2023/03/15 08:15:29;;;;;;;12.37;4.00;;;5.30;99.90;;;;;;5092998;28;20471;-50
2023/03/15 08:17:56;;;;;;;16.47;3.83;;;5.60;99.90;;;;;;5092157;28;20508;-50
2023/03/15 08:20:23;;;;;;;11.52;3.65;;;5.60;99.90;;;;;;5092100;28;20540;-51
2023/03/15 08:22:51;;;;;;;14.57;4.33;;;6.10;99.90;;;;;;5090933;28;20214;-50
2023/03/15 08:25:19;;;;;;;11.07;4.40;;;5.90;99.90;;;;;;5092180;28;20463;-50
2023/03/15 08:27:46;;;;;;;7.10;4.07;;;5.80;99.90;;;;;;5092209;28;20425;-51
2023/03/15 08:30:14;;;;;;;11.47;3.67;;;5.60;99.90;;;;;;5091174;28;20453;-50
2023/03/15 08:32:43;;;;;;;6.33;3.00;;;5.60;99.90;;;;;;5090462;28;20503;-50
2023/03/15 08:35:11;;;;;;;8.77;3.40;;;5.60;99.90;;;;;;5092336;28;20798;-51
2023/03/15 08:37:38;;;;;;;7.30;3.87;;;5.60;99.90;;;;;;5092066;28;20546;-51
2023/03/15 08:40:08;;;;;;;7.40;3.97;;;5.60;99.90;;;;;;5091662;28;20937;-52
2023/03/15 08:42:36;;;;;;;7.50;3.70;;;5.90;99.90;;;;;;5091801;28;20416;-52
2023/03/15 08:45:03;;;;;;;11.53;4.00;;;5.60;99.90;;;;;;5091197;28;20480;-50
2023/03/15 08:47:29;;;;;;;9.87;4.53;;;5.70;99.90;;;;;;5091661;28;20918;-52
2023/03/15 08:49:56;;;;;;;6.37;3.43;;;5.20;99.90;;;;;;5091173;28;20425;-52
2023/03/15 08:52:23;;;;;;;9.73;3.37;;;5.60;99.90;;;;;;5091467;28;20779;-51
2023/03/15 08:54:49;;;;;;;7.60;3.63;;;5.60;99.90;;;;;;5091078;28;20434;-51
2023/03/15 08:57:17;;;;;;;11.90;5.07;;;5.80;99.90;;;;;;5091452;28;20467;-51
2023/03/15 08:59:44;;;;;;;11.87;3.43;;;5.60;99.90;;;;;;5091053;28;20440;-51
2023/03/15 09:02:11;;;;;;;10.02;4.40;;;5.80;99.90;;;;;;5090650;28;20420;-50
2023/03/15 09:04:38;;;;;;;6.70;3.30;;;5.60;99.90;;;;;;5090964;28;20222;-50
2023/03/15 09:07:05;;;;;;;8.27;3.97;;;5.50;99.90;;;;;;5091309;28;20490;-51
2023/03/15 09:09:32;;;;;;;7.57;3.90;;;5.70;99.90;;;;;;5091010;28;20795;-52
2023/03/15 09:11:59;;;;;;;12.90;5.00;;;5.90;99.90;;;;;;5091286;28;20445;-52
2023/03/15 09:14:27;;;;;;;11.20;4.10;;;5.70;99.90;;;;;;5089940;28;20447;-51
2023/03/15 09:16:54;;;;;;;9.40;4.10;;;5.40;99.90;;;;;;5091687;28;20506;-51
2023/03/15 09:19:21;;;;;;;7.93;3.50;;;6.40;99.90;;;;;;5094404;28;20542;-51
2023/03/15 09:21:47;;;;;;;7.73;4.13;;;5.30;99.90;;;;;;5095528;28;20482;-51
2023/03/15 09:24:14;;;;;;;7.70;3.53;;;5.90;99.90;;;;;;5096134;28;20434;-50
2023/03/15 09:26:41;;;;;;;6.30;3.87;;;5.90;99.90;;;;;;5096085;28;20443;-50
2023/03/15 09:29:08;;;;;;;8.17;4.30;;;5.90;99.90;;;;;;5095886;28;20494;-50
2023/03/15 09:31:36;;;;;;;9.43;3.90;;;5.40;99.90;;;;;;5096168;28;20412;-50
2023/03/15 09:34:04;;;;;;;11.80;4.03;;;6.00;99.90;;;;;;5095644;28;20449;-51
2023/03/15 09:36:31;;;;;;;14.17;4.03;;;5.90;99.90;;;;;;5095622;28;20942;-51
2023/03/15 09:38:58;;;;;;;6.80;3.50;;;6.30;99.90;;;;;;5094828;28;20486;-52
2023/03/15 09:41:39;;;;;;;7.77;3.30;;;6.20;99.90;;;;;;5095009;28;20429;-50
2023/03/15 09:44:16;;;;;;;14.93;4.07;;;6.30;99.90;;;;;;5095100;28;20926;-49
2023/03/15 09:47:00;;;;;;;6.87;4.20;;;6.30;99.90;;;;;;5095022;28;20433;-50
2023/03/15 09:49:38;;;;;;;10.30;3.50;;;6.50;99.90;;;;;;5094750;28;20533;-51
2023/03/15 09:52:15;;;;;;;6.80;3.23;;;6.80;99.90;;;;;;5094965;28;20433;-51
2023/03/15 09:54:46;;;;;;;8.37;3.73;;;6.70;99.90;;;;;;5093591;28;20455;-51
2023/03/15 09:57:18;;;;;;;6.70;2.93;;;6.80;99.90;;;;;;5094572;28;20411;-51
2023/03/15 09:59:48;;;;;;;7.57;3.90;;;6.90;99.90;;;;;;5094077;28;20466;-51
2023/03/15 10:02:22;;;;;;;12.87;5.50;;;6.50;99.90;;;;;;5094853;28;20441;-50
2023/03/15 10:04:54;;;;;;;13.63;5.27;;;6.70;99.90;;;;;;5094811;28;20437;-51
2023/03/15 10:07:21;;;;;;;13.30;3.57;;;6.90;99.90;;;;;;5094856;28;20927;-51
2023/03/15 10:09:48;;;;;;;10.30;3.73;;;7.40;99.90;;;;;;5094120;28;20994;-53
2023/03/15 10:12:16;;;;;;;6.57;2.73;;;7.30;99.90;;;;;;5094933;28;20434;-51
2023/03/15 10:15:04;;;;;;;5.73;3.10;;;7.20;99.90;;;;;;5095128;28;20970;-51
2023/03/15 10:17:45;;;;;;;6.50;3.50;;;7.10;99.70;;;;;;5094313;28;20862;-50
2023/03/15 10:20:17;;;;;;;8.20;3.70;;;7.10;99.70;;;;;;5094162;28;20545;-51
2023/03/15 10:22:51;;;;;;;7.80;2.63;;;7.10;99.70;;;;;;5094383;28;20440;-52
2023/03/15 10:25:23;;;;;;;5.83;2.50;;;6.60;99.60;;;;;;5094559;28;20427;-52
2023/03/15 10:27:54;;;;;;;6.67;2.83;;;7.10;99.80;;;;;;5093162;28;20450;-51
2023/03/15 10:30:22;;;;;;;6.83;2.60;;;6.50;99.70;;;;;;5092981;28;20459;-51
2023/03/15 10:32:55;;;;;;;10.27;4.38;;;6.80;99.40;;;;;;5093470;28;20436;-51
2023/03/15 10:35:21;;;;;;;9.18;3.35;;;7.00;99.70;;;;;;5092977;28;20454;-51
2023/03/15 10:37:48;;;;;;;6.32;3.25;;;7.00;99.60;;;;;;5093717;28;20444;-51
2023/03/15 10:40:16;;;;;;;6.47;3.20;;;6.90;99.40;;;;;;5093633;28;20420;-50
2023/03/15 10:42:44;;;;;;;7.90;3.22;;;7.00;99.40;;;;;;5092943;28;20420;-50
2023/03/15 10:45:19;;;;;;;8.83;3.40;;;6.80;98.70;;;;;;5094259;28;20202;-51
2023/03/15 10:47:47;;;;;;;7.60;2.73;;;7.10;98.50;;;;;;5094018;28;20850;-51
2023/03/15 10:50:25;;;;;;;7.73;2.87;;;7.20;98.50;;;;;;5093637;28;20444;-51
2023/03/15 10:52:56;;;;;;;10.18;3.10;;;7.40;99.00;;;;;;5093148;28;20428;-51
2023/03/15 10:55:31;;;;;;;6.93;2.90;;;7.20;98.90;;;;;;5093540;28;20452;-52
2023/03/15 10:57:59;;;;;;;19.10;11.65;;;7.40;98.80;;;;;;5093203;28;20443;-51
2023/03/15 11:00:29;;;;;;;9.90;3.75;;;7.30;98.20;;;;;;5095491;22;20455;-53
2023/03/15 11:03:04;;;;;;;7.40;3.10;;;7.60;98.00;;;;;;5052262;28;20423;-53
2023/03/15 11:05:38;;;;;;;8.60;3.60;;;7.50;98.00;;;;;;5052809;28;20441;-53
2023/03/15 11:08:12;;;;;;;5.87;3.17;;;7.00;97.80;;;;;;5052417;28;20523;-54
2023/03/15 11:10:39;;;;;;;9.07;3.35;;;8.40;98.50;;;;;;5063228;28;20696;-54
2023/03/15 11:13:11;;;;;;;8.70;2.90;;;8.60;98.10;;;;;;5069820;28;20206;-54
2023/03/15 11:15:38;;;;;;;12.73;4.13;;;8.30;97.20;;;;;;5072688;28;20543;-55
2023/03/15 11:18:05;;;;;;;6.23;2.37;;;8.20;96.90;;;;;;5072148;28;20451;-53
2023/03/15 11:20:36;;;;;;;3.77;1.87;;;8.30;96.90;;;;;;5072523;28;20468;-53
2023/03/15 11:23:14;;;;;;;11.60;2.30;;;8.00;96.30;;;;;;5072916;28;20440;-52
2023/03/15 11:25:41;;;;;;;5.83;2.70;;;8.30;96.30;;;;;;5072333;28;20616;-54
2023/03/15 11:28:15;;;;;;;7.03;3.00;;;8.10;96.20;;;;;;5072363;28;20467;-53
2023/03/15 11:30:43;;;;;;;9.30;2.10;;;8.30;96.20;;;;;;5071974;28;20427;-53
2023/03/15 11:33:22;;;;;;;8.20;2.63;;;7.90;95.70;;;;;;5072094;28;20445;-54
2023/03/15 11:35:51;;;;;;;9.67;3.13;;;8.00;96.00;;;;;;5071973;28;20441;-54
2023/03/15 11:38:26;;;;;;;6.00;1.90;;;7.70;96.20;;;;;;5072418;28;20469;-53
2023/03/15 11:40:56;;;;;;;7.75;2.42;;;7.90;96.10;;;;;;5070671;28;20426;-54
2023/03/15 11:43:28;;;;;;;4.37;2.50;;;8.70;96.00;;;;;;5053918;28;20204;-53
2023/03/15 11:45:58;;;;;;;17.37;4.00;;;8.20;95.70;;;;;;5071979;28;20514;-56
2023/03/15 11:48:48;;;;;;;7.70;2.50;;;8.10;95.80;;;;;;5053993;28;20456;-53
2023/03/15 11:51:16;;;;;;;4.07;2.40;;;8.20;95.70;;;;;;5071989;28;20464;-54
2023/03/15 11:53:56;;;;;;;6.23;2.90;;;7.60;95.30;;;;;;5053827;28;20468;-54
2023/03/15 11:56:25;;;;;;;3.90;2.20;;;8.00;95.80;;;;;;5071865;28;20434;-53
2023/03/15 11:59:07;;;;;;;7.70;3.13;;;8.20;95.50;;;;;;5071467;28;20566;-53
2023/03/15 12:01:34;;;;;;;6.43;3.10;;;8.00;95.40;;;;;;5071565;28;20472;-54
2023/03/15 12:04:28;;;;;;;6.70;2.63;;;7.80;95.00;;;;;;5071783;28;20440;-55
2023/03/15 12:06:58;;;;;;;8.40;2.60;;;8.20;95.40;;;;;;5054145;28;20429;-52
2023/03/15 12:09:40;;;;;;;6.87;2.20;;;7.90;95.50;;;;;;5071470;28;20572;-53
2023/03/15 12:12:37;;;;;;;6.10;2.60;;;8.00;95.30;;;;;;5071503;28;20420;-52
2023/03/15 12:15:06;;;;;;;5.47;1.90;;;8.30;95.40;;;;;;5071425;28;20409;-53
2023/03/15 12:17:42;;;;;;;27.17;20.00;;;8.50;95.70;;;;;;5071550;28;20404;-54
2023/03/15 12:20:19;;;;;;;11.17;4.87;;;8.90;95.60;;;;;;5070957;28;20542;-50
2023/03/15 12:22:52;;;;;;;5.17;2.10;;;8.20;95.10;;;;;;5071509;28;20441;-53
2023/03/15 12:25:23;;;;;;;9.33;3.70;;;7.90;94.40;;;;;;5071114;28;20430;-53
2023/03/15 12:27:52;;;;;;;4.63;2.13;;;7.80;94.00;;;;;;5071989;28;20419;-52
2023/03/15 12:30:23;;;;;;;6.97;2.77;;;7.80;94.40;;;;;;5071214;28;20474;-52
2023/03/15 12:32:53;;;;;;;8.37;4.73;;;7.60;94.70;;;;;;5071402;28;20411;-52
2023/03/15 12:35:22;;;;;;;6.80;2.80;;;7.50;94.80;;;;;;5071403;28;20439;-51
2023/03/15 12:37:52;;;;;;;7.10;2.53;;;7.50;95.00;;;;;;5071986;28;20520;-51
2023/03/15 12:40:48;;;;;;;5.60;2.50;;;7.60;95.30;;;;;;5071527;28;20449;-53
2023/03/15 12:43:15;;;;;;;3.70;1.87;;;7.20;94.90;;;;;;5071197;28;20506;-51
2023/03/15 12:45:45;;;;;;;9.53;1.80;;;7.70;95.10;;;;;;5071054;28;20419;-52
2023/03/15 12:48:23;;;;;;;6.70;1.63;;;7.80;94.90;;;;;;5070731;28;20440;-52
2023/03/15 12:50:53;;;;;;;5.50;2.43;;;7.60;93.80;;;;;;5071155;28;20428;-52
2023/03/15 12:53:28;;;;;;;9.00;3.20;;;8.40;93.50;;;;;;5070643;28;20418;-53
2023/03/15 12:55:57;;;;;;;7.93;2.30;;;8.50;93.40;;;;;;5070863;28;20415;-51
2023/03/15 12:58:29;;;;;;;7.30;2.37;;;8.40;93.20;;;;;;5070861;28;20856;-52
2023/03/15 13:00:56;;;;;;;10.97;2.93;;;8.70;93.50;;;;;;5052837;28;20669;-52
2023/03/15 13:03:25;;;;;;;7.30;2.10;;;8.50;93.20;;;;;;5070930;28;20436;-53
2023/03/15 13:05:59;;;;;;;8.57;2.20;;;8.60;92.80;;;;;;5070865;28;20429;-52
2023/03/15 13:08:31;;;;;;;7.43;2.70;;;8.60;91.10;;;;;;5070524;28;20453;-53
2023/03/15 13:11:13;;;;;;;5.60;1.97;;;8.80;90.70;;;;;;5070665;28;20774;-54
2023/03/15 13:14:04;;;;;;;7.13;2.27;;;8.70;90.60;;;;;;5071145;28;20512;-51
2023/03/15 13:16:38;;;;;;;4.10;2.33;;;8.70;91.20;;;;;;5070915;28;20783;-55